DL9MAC Weather Reports


Display with metric or nautical units.
time (UTC)temp
F
wind
direction
speed
MPH
gust
MPH
rain 1hr
in
rain 24hr
in
rain mn
in
humidity
%
barometer
mb
20210412010218 47 282 3.0 5.0 0.00 0.00 0.00 85 1012.7
20210412005109 48 269 3.0 8.0 0.00 0.00 0.00 85 1012.6
20210411234717 48 308 1.0 5.0 0.00 0.00 0.00 87 1012.5
20210411224718 48 304 2.0 6.0 0.00 0.00 0.00 87 1012.4
20210411221834 48 296 1.0 4.0 0.00 0.00 0.00 87 1012.4
20210411214740 48 322 4.0 6.0 0.00 0.00 0.00 88 1012.0
20210411211727 48 285 4.0 6.0 0.00 0.00 0.00 87 1011.8
20210411210221 49 286 4.0 6.0 0.00 0.00 0.00 86 1011.7
20210411201939 50 250 8.0 15.0 0.00 0.00 0.00 84 1011.1
20210411194717 52 279 7.0 16.0 0.00 0.00 0.00 80 1010.0
20210411193346 53 284 12.0 24.0 0.00 0.00 0.00 76 1009.9
20210411191854 55 295 12.0 19.0 0.00 0.00 0.00 71 1009.3
20210411184726 58 141 0.0 0.0 0.00 0.00 0.00 55 1008.3
20210411183612 59 140 0.0 0.0 0.00 0.00 0.00 51 1007.9
20210411181824 60 141 0.0 0.0 0.00 0.00 0.00 47 1007.7
20210411180246 61 140 0.0 0.0 0.00 0.00 0.00 45 1007.6
20210411163247 64 221 1.0 2.0 0.00 0.00 0.00 42 1007.2
20210411161737 65 221 2.0 4.0 0.00 0.00 0.00 42 1007.1
20210411160216 65 229 4.0 7.0 0.00 0.00 0.00 41 1007.2
20210411153224 67 262 5.0 12.0 0.00 0.00 0.00 39 1007.0
20210411141720 66 263 3.0 8.0 0.00 0.00 0.00 41 1007.3
20210411134811 65 169 6.0 10.0 0.00 0.00 0.00 42 1007.5
20210411114728 64 180 3.0 8.0 0.00 0.00 0.00 43 1008.1
20210411113228 63 172 3.0 6.0 0.00 0.00 0.00 44 1008.2
20210411110221 63 106 2.0 5.0 0.00 0.00 0.00 42 1008.2
20210411103222 62 124 2.0 5.0 0.00 0.00 0.00 44 1008.2
20210411093219 62 82 3.0 5.0 0.00 0.00 0.00 46 1008.4
20210411091723 61 119 4.0 7.0 0.00 0.00 0.00 49 1008.6
20210411090235 61 96 4.0 7.0 0.00 0.00 0.00 48 1008.7
20210411084744 60 74 2.0 5.0 0.00 0.00 0.00 50 1008.6
20210411080221 56 142 2.0 5.0 0.00 0.00 0.00 61 1008.4
20210411074716 54 142 3.0 5.0 0.00 0.00 0.00 68 1008.4
20210411065021 48 141 4.0 6.0 0.00 0.00 0.00 77 1008.5
20210411060223 45 141 5.0 7.0 0.00 0.00 0.00 80 1008.9
20210411054715 45 146 5.0 8.0 0.00 0.00 0.00 80 1009.1
20210411051722 44 144 2.0 6.0 0.00 0.00 0.00 81 1009.1
20210411041747 45 144 3.0 5.0 0.00 0.00 0.00 81 1009.0
20210411035146 45 144 4.0 5.0 0.00 0.00 0.00 80 1008.9
20210411031733 44 144 4.0 5.0 0.00 0.00 0.00 80 1008.9
20210411030230 44 144 0.0 4.0 0.00 0.00 0.00 80 1008.8
20210411021731 45 144 0.0 0.0 0.00 0.00 0.00 78 1009.0
20210411014733 45 144 1.0 4.0 0.00 0.00 0.00 79 1009.3
20210411013222 45 144 4.0 6.0 0.00 0.00 0.00 78 1009.4